Time;durP1;ratioP1;P1;durP2;ratioP2;P2;SDS_P1;SDS_P2;PMS_P1;PMS_P2;Temp;Humidity;BMP_temperature;BMP_pressure;BME280_temperature;BME280_humidity;BME280_pressure;Samples;Min_cycle;Max_cycle;Signal;HPM_P1;HPM_P2
2021/12/17 05:01:19;;;;;;;4.63;3.83;;;7.60;99.90;;;;;;5597691;23;20308;-69
2021/12/17 05:03:45;;;;;;;5.00;4.50;;;7.60;99.90;;;;;;5030961;28;20206;-69
2021/12/17 05:06:12;;;;;;;6.38;4.00;;;7.60;99.90;;;;;;5032741;28;20629;-67
2021/12/17 05:08:39;;;;;;;13.18;3.85;;;7.60;99.90;;;;;;5031848;28;20642;-69
2021/12/17 05:11:24;;;;;;;7.45;4.20;;;7.60;99.90;;;;;;5033744;28;20567;-69
2021/12/17 05:19:29;;;;;;;4.30;3.67;;;7.60;99.90;;;;;;5052132;28;20908;-67
2021/12/17 05:21:56;;;;;;;4.05;3.70;;;7.60;99.90;;;;;;5040657;28;20233;-67
2021/12/17 05:24:23;;;;;;;6.18;4.25;;;7.60;99.90;;;;;;5033267;28;20202;-68
2021/12/17 05:26:50;;;;;;;5.40;3.38;;;7.60;99.90;;;;;;5033666;28;20260;-68
2021/12/17 05:29:16;;;;;;;5.80;4.00;;;7.60;99.90;;;;;;5032631;28;20207;-68
2021/12/17 05:31:44;;;;;;;8.63;4.32;;;7.60;99.90;;;;;;5040765;28;20280;-68
2021/12/17 05:34:11;;;;;;;7.40;4.40;;;7.60;99.90;;;;;;5052723;28;20244;-67
2021/12/17 05:36:38;;;;;;;7.97;5.18;;;7.60;99.90;;;;;;5044136;28;20206;-70
2021/12/17 05:39:04;;;;;;;6.07;4.22;;;7.60;99.90;;;;;;5034271;28;20206;-67
2021/12/17 05:41:31;;;;;;;6.10;4.03;;;7.60;99.90;;;;;;5031469;28;20230;-68
2021/12/17 05:43:58;;;;;;;6.53;4.18;;;7.60;99.90;;;;;;5033154;28;20206;-68
2021/12/17 05:46:38;;;;;;;5.13;4.22;;;7.60;99.90;;;;;;5041076;28;20228;-69
2021/12/17 05:49:06;;;;;;;7.88;4.70;;;7.60;99.90;;;;;;5052598;28;20562;-68
2021/12/17 05:51:33;;;;;;;8.90;4.88;;;7.60;99.90;;;;;;5045917;28;20650;-70
2021/12/17 05:54:00;;;;;;;5.85;3.90;;;7.60;99.90;;;;;;5032537;28;20206;-69
2021/12/17 05:56:26;;;;;;;6.43;5.00;;;7.60;99.90;;;;;;5032504;28;20227;-68
2021/12/17 05:58:53;;;;;;;6.80;4.20;;;7.60;99.90;;;;;;5043246;28;20202;-69
2021/12/17 06:01:20;;;;;;;6.32;4.80;;;7.50;99.90;;;;;;5046135;28;20225;-68
2021/12/17 06:03:46;;;;;;;6.97;4.30;;;7.60;99.90;;;;;;5032356;28;20256;-68
2021/12/17 06:06:26;;;;;;;7.15;4.05;;;7.60;99.90;;;;;;5039617;28;20202;-68
2021/12/17 06:08:52;;;;;;;8.20;4.60;;;7.60;99.90;;;;;;5040079;28;20210;-69
2021/12/17 06:11:19;;;;;;;7.43;5.65;;;7.60;99.90;;;;;;5031827;28;20229;-68
2021/12/17 06:13:46;;;;;;;10.35;5.57;;;7.60;99.90;;;;;;5032131;28;20257;-69
2021/12/17 06:16:12;;;;;;;7.63;5.80;;;7.60;99.90;;;;;;5037264;28;20276;-68
2021/12/17 06:18:39;;;;;;;8.25;6.18;;;7.60;99.90;;;;;;5031505;28;20280;-68
2021/12/17 06:21:06;;;;;;;8.23;4.80;;;7.60;99.90;;;;;;5045221;28;20288;-69
2021/12/17 06:23:34;;;;;;;8.30;5.50;;;7.60;99.90;;;;;;5041677;28;20210;-68
2021/12/17 06:26:00;;;;;;;5.93;3.90;;;7.60;99.90;;;;;;5035636;28;20237;-69
2021/12/17 06:28:27;;;;;;;7.30;3.95;;;7.60;99.90;;;;;;5031421;28;20643;-69
2021/12/17 06:30:54;;;;;;;5.35;3.85;;;7.50;99.90;;;;;;5042046;28;20217;-68
2021/12/17 06:33:20;;;;;;;8.23;5.45;;;7.60;99.90;;;;;;5035095;28;20624;-69
2021/12/17 06:35:47;;;;;;;4.90;4.15;;;7.60;99.90;;;;;;5034563;28;20230;-69
2021/12/17 06:38:14;;;;;;;7.18;4.63;;;7.60;99.90;;;;;;5031105;28;20210;-68
2021/12/17 06:40:42;;;;;;;7.47;5.22;;;7.60;99.90;;;;;;5030368;28;20703;-69
2021/12/17 06:43:09;;;;;;;6.60;4.43;;;7.60;99.90;;;;;;5036695;28;20194;-69
2021/12/17 06:45:47;;;;;;;6.22;4.72;;;7.60;99.90;;;;;;5050141;28;20619;-69
2021/12/17 06:48:14;;;;;;;9.18;5.60;;;7.60;99.90;;;;;;5043558;28;20198;-70
2021/12/17 06:59:08;;;;;;;9.35;5.60;;;7.60;99.90;;;;;;5047025;28;20209;-69
2021/12/17 07:10:16;;;;;;;8.75;5.95;;;7.60;99.90;;;;;;5030689;28;20225;-69
2021/12/17 07:21:26;;;;;;;9.48;6.20;;;7.50;99.90;;;;;;5001109;28;20289;-68
2021/12/17 07:35:26;;;;;;;7.53;5.05;;;7.60;99.90;;;;;;5042229;28;20299;-68
2021/12/17 07:40:37;;;;;;;15.13;5.95;;;7.50;99.90;;;;;;5032166;28;20233;-70
2021/12/17 07:43:11;;;;;;;11.45;7.20;;;7.50;99.90;;;;;;5039696;28;20260;-70
2021/12/17 07:45:39;;;;;;;9.18;5.35;;;7.50;99.90;;;;;;5043035;28;20712;-70
2021/12/17 07:48:06;;;;;;;24.88;16.75;;;7.50;99.90;;;;;;5041455;28;20272;-69
2021/12/17 07:50:33;;;;;;;9.10;5.65;;;7.50;99.90;;;;;;5038295;28;20404;-69
2021/12/17 07:53:00;;;;;;;6.70;4.88;;;7.50;99.90;;;;;;5035592;28;20644;-70
2021/12/17 07:55:26;;;;;;;6.95;4.75;;;7.50;99.90;;;;;;5040238;28;20252;-70
2021/12/17 07:57:53;;;;;;;5.97;4.75;;;7.50;99.90;;;;;;5038827;28;20206;-70
2021/12/17 08:00:20;;;;;;;5.78;3.95;;;7.50;99.90;;;;;;5039978;28;20197;-70
2021/12/17 08:02:48;;;;;;;6.97;4.63;;;7.50;99.90;;;;;;5038976;28;20218;-70
2021/12/17 08:05:15;;;;;;;7.00;3.92;;;7.50;99.90;;;;;;5038638;28;20194;-70
2021/12/17 08:07:42;;;;;;;5.50;4.22;;;7.50;99.90;;;;;;5053828;28;20272;-69
2021/12/17 08:10:09;;;;;;;4.07;3.58;;;7.50;99.90;;;;;;5047116;28;20293;-70
2021/12/17 08:12:36;;;;;;;5.03;3.35;;;7.50;99.90;;;;;;5054181;28;20213;-68
2021/12/17 08:15:08;;;;;;;4.13;3.20;;;7.50;99.90;;;;;;5038796;28;20218;-69
2021/12/17 08:17:51;;;;;;;4.97;3.55;;;7.50;99.90;;;;;;5037864;28;20202;-69
2021/12/17 08:26:09;;;;;;;3.58;2.88;;;7.50;99.90;;;;;;4970401;28;20192;-69
2021/12/17 08:31:29;;;;;;;4.25;2.70;;;7.50;99.90;;;;;;5103179;27;20554;-69
2021/12/17 08:33:57;;;;;;;4.65;2.67;;;7.50;99.90;;;;;;5087832;28;20644;-67
2021/12/17 08:36:24;;;;;;;4.43;2.60;;;7.50;99.90;;;;;;5087326;28;20224;-68
2021/12/17 08:38:51;;;;;;;2.22;2.03;;;7.50;99.90;;;;;;5087570;28;20207;-67
2021/12/17 08:41:20;;;;;;;2.28;2.08;;;7.50;99.90;;;;;;5084465;28;20244;-67
2021/12/17 08:43:47;;;;;;;4.43;2.60;;;7.50;99.90;;;;;;5086798;28;20573;-68
2021/12/17 08:46:15;;;;;;;2.70;2.50;;;7.50;99.90;;;;;;5087358;28;20203;-67
2021/12/17 08:48:43;;;;;;;4.30;2.40;;;7.50;99.90;;;;;;5086993;28;20258;-67
2021/12/17 08:51:09;;;;;;;2.13;1.92;;;7.50;99.90;;;;;;5086647;28;20250;-69
2021/12/17 08:53:37;;;;;;;2.05;1.85;;;7.50;99.90;;;;;;5082996;28;20202;-67
2021/12/17 08:56:04;;;;;;;3.75;2.85;;;7.50;99.90;;;;;;5086579;28;20208;-67
2021/12/17 08:58:32;;;;;;;2.70;2.50;;;7.60;99.90;;;;;;5086884;28;20204;-67
2021/12/17 09:00:59;;;;;;;3.90;2.70;;;7.60;99.90;;;;;;5086530;28;20208;-67
2021/12/17 09:03:26;;;;;;;4.00;2.97;;;7.50;99.90;;;;;;5082731;28;20573;-68
2021/12/17 09:05:54;;;;;;;3.08;2.78;;;7.50;99.90;;;;;;5086756;28;20558;-67
2021/12/17 09:08:21;;;;;;;4.35;3.05;;;7.50;99.90;;;;;;5086812;28;20641;-67
2021/12/17 09:10:52;;;;;;;3.65;3.22;;;7.60;99.90;;;;;;5085543;28;20593;-68
2021/12/17 09:13:18;;;;;;;2.63;2.47;;;7.60;99.90;;;;;;5086854;28;20212;-68
2021/12/17 09:15:45;;;;;;;4.20;3.20;;;7.60;99.90;;;;;;5086806;28;20209;-68
2021/12/17 09:18:12;;;;;;;3.20;2.72;;;7.60;99.90;;;;;;5086724;28;20200;-68
2021/12/17 09:20:38;;;;;;;5.03;3.25;;;7.60;99.90;;;;;;5086191;28;20212;-68
2021/12/17 09:23:06;;;;;;;6.20;4.38;;;7.50;99.90;;;;;;5085541;28;20282;-68
2021/12/17 09:25:33;;;;;;;6.65;5.55;;;7.50;99.90;;;;;;5075729;28;20621;-68
2021/12/17 09:28:00;;;;;;;10.95;5.82;;;7.50;99.90;;;;;;5086542;28;20679;-68
2021/12/17 09:30:26;;;;;;;6.47;5.32;;;7.40;99.90;;;;;;5086250;28;20221;-68
2021/12/17 09:32:53;;;;;;;8.68;6.57;;;7.50;99.90;;;;;;5086277;28;20697;-67
2021/12/17 09:35:21;;;;;;;8.15;6.10;;;7.40;99.90;;;;;;5085934;28;20572;-69
2021/12/17 09:37:48;;;;;;;7.43;5.55;;;7.40;99.90;;;;;;5086110;28;20201;-68
2021/12/17 09:40:16;;;;;;;4.13;3.55;;;7.40;99.90;;;;;;5085235;28;20242;-68
2021/12/17 09:42:44;;;;;;;6.65;4.22;;;7.40;99.90;;;;;;5074099;28;20221;-69
2021/12/17 09:45:13;;;;;;;10.38;5.28;;;7.40;99.90;;;;;;5071762;28;20216;-67
2021/12/17 09:47:40;;;;;;;10.13;5.45;;;7.40;99.90;;;;;;5055180;28;20210;-67
2021/12/17 09:50:10;;;;;;;9.57;5.75;;;7.40;99.90;;;;;;5072118;28;20948;-68
2021/12/17 09:52:37;;;;;;;9.15;5.60;;;7.40;99.90;;;;;;5068170;28;20284;-68
2021/12/17 09:55:06;;;;;;;6.60;5.60;;;7.50;99.90;;;;;;5072454;28;20229;-68
2021/12/17 09:57:36;;;;;;;9.68;6.25;;;7.50;99.90;;;;;;5072321;28;20204;-67
2021/12/17 10:00:04;;;;;;;6.28;4.50;;;7.50;99.90;;;;;;5072588;28;20627;-68
2021/12/17 10:02:31;;;;;;;5.70;4.07;;;7.50;99.90;;;;;;5072074;28;20303;-69
2021/12/17 10:04:58;;;;;;;6.75;4.43;;;7.60;99.90;;;;;;5072614;28;20674;-68
2021/12/17 10:07:26;;;;;;;7.40;4.80;;;7.50;99.90;;;;;;5072132;28;20266;-68
2021/12/17 10:09:54;;;;;;;6.07;4.68;;;7.60;99.90;;;;;;5071999;28;20671;-68
2021/12/17 10:12:24;;;;;;;5.95;5.32;;;7.50;99.90;;;;;;5071080;28;20771;-67
2021/12/17 10:15:05;;;;;;;8.15;6.10;;;7.60;99.90;;;;;;5071861;28;20201;-67
2021/12/17 10:17:32;;;;;;;8.15;6.72;;;7.50;99.90;;;;;;5072166;28;20236;-66
2021/12/17 10:19:59;;;;;;;9.55;7.00;;;7.50;99.90;;;;;;5071757;28;20197;-67
2021/12/17 10:22:26;;;;;;;7.47;6.07;;;7.50;99.90;;;;;;5063233;28;20713;-67
2021/12/17 10:25:04;;;;;;;8.13;6.63;;;7.50;99.90;;;;;;5066740;28;20784;-67
2021/12/17 10:27:33;;;;;;;7.93;5.65;;;7.50;99.90;;;;;;5070398;28;20218;-67
2021/12/17 10:30:09;;;;;;;6.75;5.65;;;7.50;99.90;;;;;;5067379;28;20229;-68
2021/12/17 10:32:36;;;;;;;6.63;5.90;;;7.50;99.90;;;;;;5067724;28;20247;-67
2021/12/17 10:35:07;;;;;;;9.30;6.30;;;7.50;99.90;;;;;;5065589;28;20217;-67
2021/12/17 10:37:36;;;;;;;6.97;5.65;;;7.50;99.90;;;;;;5072010;28;20205;-67
2021/12/17 10:40:18;;;;;;;6.05;5.55;;;7.50;99.90;;;;;;5067099;28;20266;-68
2021/12/17 10:42:53;;;;;;;9.30;6.90;;;7.50;99.90;;;;;;5071739;28;20680;-67
2021/12/17 10:45:26;;;;;;;10.05;7.10;;;7.50;99.90;;;;;;5071888;28;20253;-67
2021/12/17 10:48:27;;;;;;;11.57;7.72;;;7.50;99.90;;;;;;5068247;28;20205;-67
2021/12/17 10:51:19;;;;;;;8.13;6.78;;;7.50;99.90;;;;;;5065574;28;20228;-67
2021/12/17 10:53:51;;;;;;;6.85;6.07;;;7.60;99.90;;;;;;5058907;28;20237;-67
2021/12/17 10:56:18;;;;;;;7.78;5.40;;;7.60;99.90;;;;;;5051013;28;20210;-68
2021/12/17 10:59:00;;;;;;;10.73;7.28;;;7.50;99.90;;;;;;5070932;28;20553;-68
2021/12/17 11:01:35;;;;;;;9.90;7.00;;;7.50;99.90;;;;;;5071074;28;20224;-68
2021/12/17 11:04:14;;;;;;;8.73;6.32;;;7.50;99.90;;;;;;5067070;28;20238;-67
2021/12/17 11:06:46;;;;;;;11.52;7.68;;;7.50;99.90;;;;;;5064317;28;20612;-67
2021/12/17 11:09:22;;;;;;;11.60;7.35;;;7.60;99.90;;;;;;5071303;28;20201;-68
2021/12/17 11:11:50;;;;;;;9.40;6.65;;;7.60;99.90;;;;;;5067161;28;20266;-67
2021/12/17 11:14:23;;;;;;;7.68;6.38;;;7.60;99.90;;;;;;5071244;28;20216;-67
2021/12/17 11:16:51;;;;;;;10.48;7.45;;;7.60;99.90;;;;;;5070356;28;20288;-68
2021/12/17 11:19:18;;;;;;;8.68;6.45;;;7.60;99.90;;;;;;5066136;28;20719;-68
2021/12/17 11:21:45;;;;;;;11.45;7.13;;;7.60;99.90;;;;;;5068882;28;20697;-69
2021/12/17 11:24:13;;;;;;;11.35;6.38;;;7.70;99.90;;;;;;5071322;28;20205;-68
2021/12/17 11:26:40;;;;;;;11.32;7.15;;;7.70;99.90;;;;;;5060869;28;20209;-69
2021/12/17 11:29:08;;;;;;;11.20;6.50;;;7.70;99.90;;;;;;5066157;28;20295;-68
2021/12/17 11:31:34;;;;;;;8.55;6.53;;;7.70;99.90;;;;;;5069271;28;20225;-69
2021/12/17 11:34:03;;;;;;;9.52;7.30;;;7.70;99.90;;;;;;5070996;28;20870;-69
2021/12/17 11:36:30;;;;;;;9.82;7.43;;;7.60;99.90;;;;;;5070473;28;20209;-70
2021/12/17 11:39:03;;;;;;;7.85;5.30;;;7.70;99.90;;;;;;5069616;28;20583;-69
2021/12/17 11:41:40;;;;;;;12.05;6.80;;;7.60;99.90;;;;;;5069686;28;20278;-70
2021/12/17 11:44:09;;;;;;;9.85;6.53;;;7.70;99.90;;;;;;5070492;28;20292;-68
2021/12/17 11:46:36;;;;;;;9.65;6.43;;;7.70;99.90;;;;;;5070703;28;20213;-68
2021/12/17 11:49:07;;;;;;;11.63;7.85;;;7.70;99.90;;;;;;5070901;28;20201;-69
2021/12/17 11:51:35;;;;;;;9.63;7.03;;;7.70;99.90;;;;;;5069572;28;20232;-68
2021/12/17 11:54:07;;;;;;;7.95;6.32;;;7.70;99.90;;;;;;5070504;28;20270;-69
2021/12/17 11:56:46;;;;;;;9.07;5.70;;;7.80;99.90;;;;;;5069921;28;20587;-69
2021/12/17 11:59:37;;;;;;;8.73;6.20;;;7.80;99.90;;;;;;5070501;28;20239;-69
2021/12/17 12:02:15;;;;;;;6.55;5.60;;;7.80;99.90;;;;;;5069905;28;20811;-67
2021/12/17 12:04:51;;;;;;;6.43;5.28;;;7.80;99.90;;;;;;5070289;28;20213;-66
2021/12/17 12:07:20;;;;;;;4.63;4.25;;;7.80;99.90;;;;;;5070320;28;20213;-67
2021/12/17 12:09:57;;;;;;;4.88;4.45;;;7.80;99.90;;;;;;5070462;28;20357;-67
2021/12/17 12:12:26;;;;;;;5.78;4.82;;;7.80;99.90;;;;;;5069606;28;20561;-66
2021/12/17 12:14:54;;;;;;;6.45;5.80;;;7.80;99.90;;;;;;5070751;28;20213;-67
2021/12/17 12:17:58;;;;;;;6.75;5.32;;;7.80;99.90;;;;;;5071697;28;20550;-67
2021/12/17 12:20:51;;;;;;;5.70;5.13;;;7.90;99.90;;;;;;5070067;28;20873;-67
2021/12/17 12:23:19;;;;;;;8.52;5.78;;;7.90;99.90;;;;;;5050567;28;20210;-67
2021/12/17 12:26:04;;;;;;;8.55;5.85;;;7.90;99.90;;;;;;5068977;28;20646;-67
2021/12/17 12:28:49;;;;;;;8.98;5.28;;;7.90;99.90;;;;;;5059952;28;20254;-67
2021/12/17 12:31:57;;;;;;;5.75;5.15;;;8.00;99.90;;;;;;5069904;28;20239;-66
2021/12/17 12:34:31;;;;;;;7.63;4.90;;;8.00;99.90;;;;;;5066091;28;20201;-66
2021/12/17 12:37:03;;;;;;;4.10;3.75;;;8.00;99.90;;;;;;5064644;28;20280;-66
2021/12/17 12:39:33;;;;;;;4.95;4.55;;;8.00;99.90;;;;;;5070055;28;20205;-65
2021/12/17 12:42:04;;;;;;;4.05;3.75;;;8.00;99.90;;;;;;5069407;28;20239;-65
2021/12/17 12:45:09;;;;;;;3.25;3.05;;;8.00;99.90;;;;;;5070997;28;20209;-66
2021/12/17 12:47:46;;;;;;;4.13;3.72;;;8.00;99.90;;;;;;5070005;28;20235;-65
2021/12/17 12:50:16;;;;;;;3.65;3.42;;;7.90;99.90;;;;;;5069987;28;20711;-66
2021/12/17 12:52:46;;;;;;;2.70;2.60;;;8.00;99.90;;;;;;5068664;28;20228;-65
2021/12/17 12:55:19;;;;;;;5.47;4.47;;;7.90;99.90;;;;;;5069579;28;20209;-66
2021/12/17 12:57:50;;;;;;;2.70;2.60;;;7.90;99.90;;;;;;5068011;28;20577;-66
2021/12/17 13:00:21;;;;;;;2.83;2.72;;;7.80;99.90;;;;;;5069951;28;20213;-66
2021/12/17 13:02:51;;;;;;;3.60;3.40;;;7.80;99.90;;;;;;5065884;28;20661;-67
2021/12/17 13:05:18;;;;;;;2.92;2.78;;;7.80;99.90;;;;;;5069443;28;20212;-67
2021/12/17 13:07:50;;;;;;;3.58;3.20;;;7.80;99.90;;;;;;5069732;28;20202;-67
2021/12/17 13:10:19;;;;;;;3.40;3.20;;;7.90;99.90;;;;;;5068643;28;20584;-67
2021/12/17 13:12:51;;;;;;;2.78;2.58;;;7.90;99.90;;;;;;5069245;28;20213;-67
2021/12/17 13:15:31;;;;;;;4.18;3.88;;;7.80;99.90;;;;;;5069508;28;20259;-69
2021/12/17 13:21:03;;;;;;;5.20;4.65;;;7.70;99.90;;;;;;5073436;28;20243;-69
2021/12/17 13:23:35;;;;;;;4.20;3.90;;;7.70;99.90;;;;;;5073477;28;20236;-68
2021/12/17 13:26:04;;;;;;;8.13;5.93;;;7.70;99.90;;;;;;5072486;28;20239;-68
2021/12/17 13:28:47;;;;;;;4.43;4.10;;;7.70;99.90;;;;;;5072919;28;20212;-68
2021/12/17 13:31:26;;;;;;;4.50;4.22;;;7.70;99.90;;;;;;5072617;28;20233;-68
2021/12/17 13:33:53;;;;;;;5.28;4.75;;;7.70;99.90;;;;;;5073175;28;20255;-68
2021/12/17 13:36:20;;;;;;;5.25;4.70;;;7.70;99.90;;;;;;5073021;28;20209;-68
2021/12/17 13:38:48;;;;;;;4.47;4.15;;;7.70;99.90;;;;;;5071669;28;20201;-69
2021/12/17 13:41:19;;;;;;;6.90;5.45;;;7.80;99.90;;;;;;5072030;28;20282;-68
2021/12/17 13:43:47;;;;;;;4.72;3.95;;;7.80;99.90;;;;;;5072857;28;20856;-68
2021/12/17 13:46:13;;;;;;;4.95;4.50;;;7.80;99.90;;;;;;5073132;28;20202;-69
2021/12/17 13:48:40;;;;;;;5.65;4.35;;;7.70;99.90;;;;;;5063309;28;20206;-69
2021/12/17 13:51:14;;;;;;;6.30;4.75;;;7.80;99.90;;;;;;5070283;28;20229;-69
2021/12/17 13:53:40;;;;;;;5.60;5.10;;;7.80;99.90;;;;;;5064589;28;20319;-68
2021/12/17 13:56:15;;;;;;;5.68;4.70;;;7.80;99.90;;;;;;5071791;28;20209;-72
2021/12/17 13:58:42;;;;;;;9.48;4.75;;;7.80;99.90;;;;;;5072334;28;20203;-68
2021/12/17 14:01:09;;;;;;;4.70;4.38;;;7.80;99.90;;;;;;5071465;28;20760;-68
2021/12/17 14:03:41;;;;;;;5.40;4.68;;;7.90;99.90;;;;;;5072967;28;20207;-68
2021/12/17 14:06:16;;;;;;;5.95;5.20;;;7.90;99.90;;;;;;5071697;28;20197;-68
2021/12/17 14:08:44;;;;;;;8.88;5.78;;;7.80;99.90;;;;;;5072933;28;20633;-67
2021/12/17 14:11:20;;;;;;;5.68;5.18;;;7.80;99.90;;;;;;5071242;28;20225;-68
2021/12/17 14:13:47;;;;;;;6.15;3.65;;;7.80;99.90;;;;;;5072603;28;20767;-68
2021/12/17 14:16:26;;;;;;;3.47;3.17;;;7.80;99.90;;;;;;5072145;28;20208;-67
2021/12/17 14:18:56;;;;;;;8.40;7.50;;;7.80;99.90;;;;;;5072198;28;20234;-68
2021/12/17 14:21:28;;;;;;;4.00;3.67;;;7.80;99.90;;;;;;5072074;28;20221;-68
2021/12/17 14:23:54;;;;;;;3.33;3.13;;;7.80;99.90;;;;;;5070721;28;20280;-69
2021/12/17 14:26:29;;;;;;;3.70;3.40;;;7.80;99.90;;;;;;5070558;28;20198;-69
2021/12/17 14:28:56;;;;;;;3.80;3.60;;;7.90;99.90;;;;;;5071250;28;20300;-70
2021/12/17 14:31:25;;;;;;;3.45;3.15;;;7.90;99.90;;;;;;5070386;28;21647;-70
2021/12/17 14:33:56;;;;;;;2.38;2.22;;;7.90;99.90;;;;;;5071268;28;20205;-69
2021/12/17 14:36:28;;;;;;;3.00;2.90;;;7.90;99.90;;;;;;5071909;28;20299;-68
2021/12/17 14:39:05;;;;;;;3.92;3.65;;;7.90;99.90;;;;;;5070846;28;21689;-68
2021/12/17 14:41:41;;;;;;;3.42;3.25;;;7.80;99.90;;;;;;5069271;28;20274;-68
2021/12/17 14:44:21;;;;;;;3.22;3.03;;;7.80;99.90;;;;;;5071187;28;20304;-69
2021/12/17 14:46:52;;;;;;;3.20;3.00;;;7.80;99.90;;;;;;5067094;28;20209;-69
2021/12/17 14:57:13;;;;;;;3.15;2.95;;;7.80;99.90;;;;;;5071126;28;20288;-70
2021/12/17 15:00:46;;;;;;;4.18;3.60;;;7.80;99.90;;;;;;5066341;28;20700;-69
2021/12/17 15:03:23;;;;;;;5.25;4.15;;;7.80;99.90;;;;;;5066720;28;20194;-69
2021/12/17 15:05:51;;;;;;;3.88;3.58;;;7.80;99.90;;;;;;5068291;28;20669;-69
2021/12/17 15:08:18;;;;;;;5.05;3.95;;;7.80;99.90;;;;;;5071086;28;20201;-68
2021/12/17 15:10:46;;;;;;;4.35;3.97;;;7.80;99.90;;;;;;5069473;28;20267;-69
2021/12/17 15:13:14;;;;;;;3.97;3.78;;;7.80;99.90;;;;;;5067377;28;20278;-70
2021/12/17 15:15:42;;;;;;;4.75;4.25;;;7.80;99.90;;;;;;5070812;28;20200;-70
2021/12/17 15:18:14;;;;;;;4.43;3.92;;;7.80;99.90;;;;;;5071567;28;20205;-71
2021/12/17 15:20:43;;;;;;;3.83;3.53;;;7.80;99.90;;;;;;5064840;28;20249;-70
2021/12/17 15:23:10;;;;;;;4.72;4.20;;;7.80;99.90;;;;;;5068969;28;20221;-68
2021/12/17 15:25:39;;;;;;;4.30;3.80;;;7.80;99.90;;;;;;5064911;28;20206;-69
2021/12/17 15:28:07;;;;;;;4.50;3.97;;;7.80;99.90;;;;;;5056159;28;20200;-68
2021/12/17 15:30:38;;;;;;;3.63;3.42;;;7.80;99.90;;;;;;5069606;28;21909;-68
2021/12/17 15:33:06;;;;;;;4.03;3.58;;;7.80;99.90;;;;;;5069673;28;20358;-68
2021/12/17 15:35:33;;;;;;;5.18;4.60;;;7.90;99.90;;;;;;5067742;28;20217;-69
2021/12/17 15:38:01;;;;;;;3.17;2.85;;;7.90;99.90;;;;;;5069786;28;20720;-68
2021/12/17 15:40:28;;;;;;;3.25;3.05;;;7.90;99.90;;;;;;5068528;28;20217;-69
2021/12/17 15:43:02;;;;;;;3.90;3.47;;;7.90;99.90;;;;;;5070291;28;20247;-68
2021/12/17 15:45:29;;;;;;;3.65;3.10;;;7.90;99.90;;;;;;5070676;28;20215;-68
2021/12/17 15:47:58;;;;;;;3.30;3.10;;;7.90;99.90;;;;;;5070883;28;20289;-68
2021/12/17 15:50:24;;;;;;;4.15;3.63;;;7.90;99.90;;;;;;5070049;28;20259;-68
2021/12/17 15:52:51;;;;;;;5.55;5.05;;;7.90;99.90;;;;;;5069819;28;20221;-68
2021/12/17 15:55:21;;;;;;;6.68;5.25;;;7.90;99.90;;;;;;5069875;28;20546;-68
2021/12/17 15:57:48;;;;;;;5.40;4.90;;;7.90;99.90;;;;;;5069994;28;20208;-67
2021/12/17 16:00:17;;;;;;;6.38;4.05;;;7.90;99.90;;;;;;5070045;28;20231;-68
2021/12/17 16:02:44;;;;;;;5.03;4.57;;;7.90;99.90;;;;;;5070138;28;20302;-68
2021/12/17 16:05:14;;;;;;;6.90;4.38;;;7.90;99.90;;;;;;5070130;28;20197;-67
2021/12/17 16:07:41;;;;;;;5.55;4.30;;;8.00;99.90;;;;;;5070547;28;20251;-68
2021/12/17 16:18:43;;;;;;;6.40;5.00;;;8.00;99.90;;;;;;5068167;28;20702;-69
2021/12/17 16:21:12;;;;;;;12.32;10.70;;;8.00;99.90;;;;;;5069028;28;20755;-67
2021/12/17 16:23:41;;;;;;;7.70;6.38;;;8.00;99.90;;;;;;5066061;28;20201;-70
2021/12/17 16:26:09;;;;;;;7.28;5.35;;;8.00;99.90;;;;;;5064441;28;20205;-69
2021/12/17 16:28:36;;;;;;;10.55;6.45;;;8.00;99.90;;;;;;5068522;28;20231;-68
2021/12/17 16:31:08;;;;;;;7.25;4.60;;;8.00;99.90;;;;;;5065342;28;20274;-68
2021/12/17 16:33:36;;;;;;;10.00;6.47;;;8.10;99.90;;;;;;5066981;28;20225;-68
2021/12/17 16:36:04;;;;;;;9.05;7.00;;;8.00;99.90;;;;;;5067841;28;20197;-68
2021/12/17 16:38:33;;;;;;;13.30;9.20;;;8.10;99.90;;;;;;5068259;28;20213;-68
2021/12/17 16:41:01;;;;;;;14.40;9.05;;;8.10;99.90;;;;;;5058687;28;20224;-69
2021/12/17 16:43:28;;;;;;;13.73;8.52;;;8.10;99.90;;;;;;5065114;28;20213;-69
2021/12/17 16:47:00;;;;;;;15.95;9.52;;;8.10;99.90;;;;;;5065082;28;20721;-68
2021/12/17 16:49:13;;;;;;;17.20;9.95;;;8.10;99.90;;;;;;5061717;28;20209;-69
2021/12/17 16:51:41;;;;;;;22.40;11.15;;;8.10;99.90;;;;;;5066059;28;20308;-69
2021/12/17 16:54:09;;;;;;;12.00;8.15;;;8.20;99.90;;;;;;5068754;28;20630;-70
2021/12/17 16:56:37;;;;;;;13.13;9.43;;;8.20;99.90;;;;;;5068832;28;20954;-68
2021/12/17 16:59:04;;;;;;;16.17;9.10;;;8.20;99.90;;;;;;5069455;28;20213;-68
2021/12/17 17:01:35;;;;;;;11.40;8.50;;;8.20;99.90;;;;;;5067384;28;20351;-69
2021/12/17 17:04:02;;;;;;;9.23;7.57;;;8.20;99.90;;;;;;5071084;28;20294;-69
2021/12/17 17:06:28;;;;;;;13.90;8.75;;;8.20;99.90;;;;;;5069708;28;20213;-68
2021/12/17 17:09:00;;;;;;;12.05;8.65;;;8.20;99.90;;;;;;5069837;28;20255;-68
2021/12/17 17:11:30;;;;;;;10.60;8.05;;;8.20;99.90;;;;;;5068124;28;20256;-69
2021/12/17 17:13:57;;;;;;;15.32;9.45;;;8.30;99.90;;;;;;5069486;28;20316;-68
2021/12/17 17:16:24;;;;;;;11.85;8.27;;;8.30;99.90;;;;;;5068684;28;20217;-69
2021/12/17 17:18:51;;;;;;;11.65;7.20;;;8.30;99.90;;;;;;5058520;28;20258;-69
2021/12/17 17:21:18;;;;;;;8.05;5.70;;;8.20;99.90;;;;;;5070928;28;20241;-69
2021/12/17 17:23:46;;;;;;;9.68;6.65;;;8.20;99.90;;;;;;5068755;28;20193;-69
2021/12/17 17:26:13;;;;;;;11.07;7.38;;;8.20;99.90;;;;;;5063368;28;20208;-70
2021/12/17 17:28:43;;;;;;;17.27;11.70;;;8.20;99.90;;;;;;5068406;28;20225;-69
2021/12/17 17:31:09;;;;;;;12.32;8.13;;;8.10;99.90;;;;;;5067049;28;20256;-68
2021/12/17 17:33:45;;;;;;;9.20;6.68;;;8.10;99.90;;;;;;5070086;28;20358;-68
2021/12/17 17:36:12;;;;;;;6.82;5.90;;;8.10;99.90;;;;;;5069047;28;20215;-68
2021/12/17 17:38:39;;;;;;;12.02;8.80;;;8.10;99.90;;;;;;5066961;28;20201;-68
2021/12/17 17:41:05;;;;;;;8.00;6.75;;;8.10;99.90;;;;;;5064934;28;20255;-69
2021/12/17 17:43:32;;;;;;;10.77;7.35;;;8.10;99.90;;;;;;5068219;28;20254;-69
2021/12/17 17:46:00;;;;;;;11.82;6.55;;;8.10;99.90;;;;;;5066825;28;20676;-68
2021/12/17 17:48:28;;;;;;;12.73;6.95;;;8.10;99.90;;;;;;5062865;28;20726;-69
2021/12/17 17:50:55;;;;;;;8.05;6.57;;;8.10;99.90;;;;;;5071032;28;20341;-68
2021/12/17 17:53:21;;;;;;;9.88;6.40;;;8.10;99.90;;;;;;5066814;28;20336;-68
2021/12/17 17:55:48;;;;;;;10.27;6.78;;;8.20;99.90;;;;;;5070982;28;20619;-68
2021/12/17 17:58:15;;;;;;;11.40;7.35;;;8.10;99.90;;;;;;5064652;28;20198;-69
2021/12/17 18:00:43;;;;;;;9.27;7.50;;;8.10;99.90;;;;;;5063502;28;20279;-68
2021/12/17 18:03:12;;;;;;;9.65;7.50;;;8.10;99.90;;;;;;5069756;28;20628;-68
2021/12/17 18:05:41;;;;;;;14.10;7.85;;;8.10;99.90;;;;;;5064966;28;20669;-69
2021/12/17 18:08:08;;;;;;;13.70;8.90;;;8.10;99.90;;;;;;5069646;28;20202;-69
2021/12/17 18:10:35;;;;;;;12.40;7.63;;;8.10;99.90;;;;;;5070507;28;20285;-69
2021/12/17 18:13:05;;;;;;;10.48;8.07;;;8.10;99.90;;;;;;5069134;28;20243;-69
2021/12/17 18:15:33;;;;;;;16.42;9.70;;;8.10;99.90;;;;;;5069859;28;20223;-69
2021/12/17 18:17:59;;;;;;;16.08;9.27;;;8.00;99.90;;;;;;5070855;28;20217;-69
2021/12/17 18:20:28;;;;;;;15.32;10.15;;;8.00;99.90;;;;;;5070949;28;20256;-69
2021/12/17 18:22:56;;;;;;;22.15;11.48;;;8.00;99.90;;;;;;5072015;28;20202;-68
2021/12/17 18:25:24;;;;;;;19.05;11.57;;;8.00;99.90;;;;;;5068039;28;20299;-68
2021/12/17 18:27:51;;;;;;;16.60;11.20;;;8.00;99.90;;;;;;5070347;28;20205;-69
2021/12/17 18:30:20;;;;;;;18.85;12.75;;;8.00;99.90;;;;;;5069088;28;20342;-69
2021/12/17 18:32:51;;;;;;;14.80;9.95;;;7.90;99.90;;;;;;5066791;28;20213;-68
2021/12/17 18:35:19;;;;;;;17.98;11.23;;;7.90;99.90;;;;;;5071201;28;20288;-68
2021/12/17 18:37:47;;;;;;;16.40;10.32;;;7.80;99.90;;;;;;5070194;28;20296;-68
2021/12/17 18:40:22;;;;;;;20.65;11.85;;;7.80;99.90;;;;;;5068479;28;20201;-67
2021/12/17 18:45:35;;;;;;;17.45;11.40;;;7.80;99.90;;;;;;5069836;28;20212;-68
2021/12/17 18:48:01;;;;;;;14.52;9.00;;;7.80;99.90;;;;;;5066589;28;20202;-68
2021/12/17 18:50:28;;;;;;;15.32;8.38;;;7.80;99.90;;;;;;5066588;28;20205;-68
2021/12/17 18:52:57;;;;;;;15.30;10.00;;;7.70;99.90;;;;;;5070011;28;20217;-69
2021/12/17 18:55:23;;;;;;;15.82;10.60;;;7.70;99.90;;;;;;5069412;28;20328;-68
2021/12/17 18:57:50;;;;;;;17.45;9.23;;;7.70;99.90;;;;;;5064079;28;20201;-69
2021/12/17 19:00:17;;;;;;;17.42;9.70;;;7.60;99.90;;;;;;5064428;28;20205;-68
2021/12/17 19:02:44;;;;;;;17.20;10.60;;;7.70;99.90;;;;;;5067950;28;20335;-68
2021/12/17 19:05:11;;;;;;;17.35;9.98;;;7.60;99.90;;;;;;5065350;28;20205;-69
2021/12/17 19:07:37;;;;;;;18.35;9.80;;;7.60;99.90;;;;;;5067705;28;20245;-68
2021/12/17 19:10:06;;;;;;;18.00;10.52;;;7.60;99.90;;;;;;5066117;28;20205;-70
2021/12/17 19:12:33;;;;;;;19.45;10.35;;;7.60;99.90;;;;;;5064009;28;20228;-67
2021/12/17 19:15:00;;;;;;;24.77;11.63;;;7.60;99.90;;;;;;5066438;28;20219;-68
2021/12/17 19:17:30;;;;;;;17.98;11.90;;;7.50;99.90;;;;;;5063261;28;20216;-69
2021/12/17 19:20:08;;;;;;;23.80;13.55;;;7.60;99.90;;;;;;5065844;28;20232;-69
2021/12/17 19:22:36;;;;;;;22.42;15.45;;;7.60;99.90;;;;;;5062667;28;20247;-69
2021/12/17 19:25:07;;;;;;;28.83;15.48;;;7.60;99.90;;;;;;5063509;28;20292;-68